sensor_id;sensor_type;location;lat;lon;timestamp;temperature;humidity
35563;DHT22;21665;40.108;18.302;2022-08-03T00:01:53;25.40;99.90
35563;DHT22;21665;40.108;18.302;2022-08-03T00:04:32;25.30;99.90
35563;DHT22;21665;40.108;18.302;2022-08-03T00:07:01;25.30;99.90
35563;DHT22;21665;40.108;18.302;2022-08-03T00:09:28;25.30;99.90
35563;DHT22;21665;40.108;18.302;2022-08-03T00:11:56;25.30;99.90
35563;DHT22;21665;40.108;18.302;2022-08-03T00:14:23;25.30;99.90
35563;DHT22;21665;40.108;18.302;2022-08-03T00:16:53;25.30;99.90
35563;DHT22;21665;40.108;18.302;2022-08-03T00:19:19;25.20;99.90
35563;DHT22;21665;40.108;18.302;2022-08-03T00:21:46;25.20;99.90
35563;DHT22;21665;40.108;18.302;2022-08-03T00:24:12;25.10;99.90
35563;DHT22;21665;40.108;18.302;2022-08-03T00:26:39;25.10;99.90
35563;DHT22;21665;40.108;18.302;2022-08-03T00:29:05;25.10;99.90
35563;DHT22;21665;40.108;18.302;2022-08-03T00:31:32;25.10;99.90
35563;DHT22;21665;40.108;18.302;2022-08-03T00:33:59;25.10;99.90
35563;DHT22;21665;40.108;18.302;2022-08-03T00:36:28;25.10;99.90
35563;DHT22;21665;40.108;18.302;2022-08-03T00:38:55;25.10;99.90
35563;DHT22;21665;40.108;18.302;2022-08-03T00:41:22;25.10;99.90
35563;DHT22;21665;40.108;18.302;2022-08-03T00:43:48;25.10;99.90
35563;DHT22;21665;40.108;18.302;2022-08-03T00:46:18;25.00;99.90
35563;DHT22;21665;40.108;18.302;2022-08-03T00:48:48;25.10;99.90
35563;DHT22;21665;40.108;18.302;2022-08-03T00:51:16;25.00;99.90
35563;DHT22;21665;40.108;18.302;2022-08-03T00:53:43;25.00;99.90
35563;DHT22;21665;40.108;18.302;2022-08-03T00:56:17;25.00;99.90
35563;DHT22;21665;40.108;18.302;2022-08-03T00:58:45;25.00;99.90
35563;DHT22;21665;40.108;18.302;2022-08-03T01:01:13;25.00;99.90
35563;DHT22;21665;40.108;18.302;2022-08-03T01:03:40;25.00;99.90
35563;DHT22;21665;40.108;18.302;2022-08-03T01:06:18;25.00;99.90
35563;DHT22;21665;40.108;18.302;2022-08-03T01:14:14;25.00;99.90
35563;DHT22;21665;40.108;18.302;2022-08-03T01:16:58;25.00;99.90
35563;DHT22;21665;40.108;18.302;2022-08-03T01:23:02;25.00;99.90
35563;DHT22;21665;40.108;18.302;2022-08-03T01:30:55;24.80;99.90
35563;DHT22;21665;40.108;18.302;2022-08-03T01:33:30;24.70;99.90
35563;DHT22;21665;40.108;18.302;2022-08-03T01:36:08;24.70;99.90
35563;DHT22;21665;40.108;18.302;2022-08-03T01:38:59;24.70;99.90
35563;DHT22;21665;40.108;18.302;2022-08-03T01:41:41;24.60;99.90
35563;DHT22;21665;40.108;18.302;2022-08-03T01:44:11;24.60;99.90
35563;DHT22;21665;40.108;18.302;2022-08-03T01:46:39;24.60;99.90
35563;DHT22;21665;40.108;18.302;2022-08-03T01:49:11;24.50;99.90
35563;DHT22;21665;40.108;18.302;2022-08-03T01:51:41;24.60;99.90
35563;DHT22;21665;40.108;18.302;2022-08-03T01:54:10;24.60;99.90
35563;DHT22;21665;40.108;18.302;2022-08-03T01:56:40;24.60;99.90
35563;DHT22;21665;40.108;18.302;2022-08-03T01:59:09;24.60;99.90
35563;DHT22;21665;40.108;18.302;2022-08-03T02:01:37;24.50;99.90
35563;DHT22;21665;40.108;18.302;2022-08-03T02:04:08;24.50;99.90
35563;DHT22;21665;40.108;18.302;2022-08-03T02:06:37;24.50;99.90
35563;DHT22;21665;40.108;18.302;2022-08-03T02:09:05;24.50;99.90
35563;DHT22;21665;40.108;18.302;2022-08-03T02:11:33;24.50;99.90
35563;DHT22;21665;40.108;18.302;2022-08-03T02:14:05;24.50;99.90
35563;DHT22;21665;40.108;18.302;2022-08-03T02:16:34;24.50;99.90
35563;DHT22;21665;40.108;18.302;2022-08-03T02:19:04;24.40;99.90
35563;DHT22;21665;40.108;18.302;2022-08-03T02:21:34;24.50;99.90
35563;DHT22;21665;40.108;18.302;2022-08-03T02:24:03;24.50;99.90
35563;DHT22;21665;40.108;18.302;2022-08-03T02:26:31;24.50;99.90
35563;DHT22;21665;40.108;18.302;2022-08-03T02:29:04;24.60;99.90
35563;DHT22;21665;40.108;18.302;2022-08-03T02:31:34;24.70;99.90
35563;DHT22;21665;40.108;18.302;2022-08-03T02:34:09;24.70;99.90
35563;DHT22;21665;40.108;18.302;2022-08-03T02:36:39;24.70;99.90
35563;DHT22;21665;40.108;18.302;2022-08-03T02:39:18;24.70;99.90
35563;DHT22;21665;40.108;18.302;2022-08-03T02:42:09;24.70;99.90
35563;DHT22;21665;40.108;18.302;2022-08-03T02:44:45;24.70;99.90
35563;DHT22;21665;40.108;18.302;2022-08-03T02:47:15;24.70;99.90
35563;DHT22;21665;40.108;18.302;2022-08-03T02:49:48;24.70;99.90
35563;DHT22;21665;40.108;18.302;2022-08-03T02:52:17;24.70;99.90
35563;DHT22;21665;40.108;18.302;2022-08-03T02:54:52;24.70;99.90
35563;DHT22;21665;40.108;18.302;2022-08-03T02:57:21;24.70;99.90
35563;DHT22;21665;40.108;18.302;2022-08-03T02:59:49;24.80;99.90
35563;DHT22;21665;40.108;18.302;2022-08-03T03:02:18;24.70;99.90
35563;DHT22;21665;40.108;18.302;2022-08-03T03:04:45;24.80;99.90
35563;DHT22;21665;40.108;18.302;2022-08-03T03:07:13;24.70;99.90
35563;DHT22;21665;40.108;18.302;2022-08-03T03:09:50;24.70;99.90
35563;DHT22;21665;40.108;18.302;2022-08-03T03:12:18;24.70;99.90
35563;DHT22;21665;40.108;18.302;2022-08-03T03:14:46;24.70;99.90
35563;DHT22;21665;40.108;18.302;2022-08-03T03:17:14;24.70;99.90
35563;DHT22;21665;40.108;18.302;2022-08-03T03:19:51;24.60;99.90
35563;DHT22;21665;40.108;18.302;2022-08-03T03:22:19;24.60;99.90
35563;DHT22;21665;40.108;18.302;2022-08-03T03:24:48;24.60;99.90
35563;DHT22;21665;40.108;18.302;2022-08-03T03:27:20;24.50;99.90
35563;DHT22;21665;40.108;18.302;2022-08-03T03:29:48;24.50;99.90
35563;DHT22;21665;40.108;18.302;2022-08-03T03:32:15;24.50;99.90
35563;DHT22;21665;40.108;18.302;2022-08-03T03:34:43;24.50;99.90
35563;DHT22;21665;40.108;18.302;2022-08-03T03:37:10;24.50;99.90
35563;DHT22;21665;40.108;18.302;2022-08-03T03:39:37;24.40;99.90
35563;DHT22;21665;40.108;18.302;2022-08-03T03:42:04;24.30;99.90
35563;DHT22;21665;40.108;18.302;2022-08-03T03:44:31;24.30;99.90
35563;DHT22;21665;40.108;18.302;2022-08-03T03:46:58;24.30;99.90
35563;DHT22;21665;40.108;18.302;2022-08-03T04:34:07;25.20;99.90
35563;DHT22;21665;40.108;18.302;2022-08-03T05:00:24;27.90;99.90
35563;DHT22;21665;40.108;18.302;2022-08-03T05:06:57;30.00;99.90
35563;DHT22;21665;40.108;18.302;2022-08-03T05:09:56;30.50;99.90
35563;DHT22;21665;40.108;18.302;2022-08-03T05:15:44;31.10;99.90
35563;DHT22;21665;40.108;18.302;2022-08-03T05:18:49;31.60;99.90
35563;DHT22;21665;40.108;18.302;2022-08-03T05:21:40;31.70;99.90
35563;DHT22;21665;40.108;18.302;2022-08-03T05:24:24;32.00;99.90
35563;DHT22;21665;40.108;18.302;2022-08-03T05:27:37;31.80;99.90
35563;DHT22;21665;40.108;18.302;2022-08-03T05:30:45;31.80;99.90
35563;DHT22;21665;40.108;18.302;2022-08-03T06:04:08;33.60;99.90
35563;DHT22;21665;40.108;18.302;2022-08-03T06:06:35;33.40;99.90
35563;DHT22;21665;40.108;18.302;2022-08-03T06:09:37;33.30;99.90
35563;DHT22;21665;40.108;18.302;2022-08-03T06:12:42;33.80;99.90
35563;DHT22;21665;40.108;18.302;2022-08-03T06:15:25;33.60;99.90
35563;DHT22;21665;40.108;18.302;2022-08-03T06:18:08;33.50;99.90
35563;DHT22;21665;40.108;18.302;2022-08-03T06:20:38;33.70;99.90
35563;DHT22;21665;40.108;18.302;2022-08-03T06:23:11;34.10;99.90
35563;DHT22;21665;40.108;18.302;2022-08-03T06:25:47;34.90;99.90
35563;DHT22;21665;40.108;18.302;2022-08-03T06:28:19;35.10;99.90
35563;DHT22;21665;40.108;18.302;2022-08-03T06:31:28;35.00;99.90
35563;DHT22;21665;40.108;18.302;2022-08-03T06:34:00;34.30;99.90
35563;DHT22;21665;40.108;18.302;2022-08-03T06:37:15;34.30;99.90
35563;DHT22;21665;40.108;18.302;2022-08-03T06:40:19;34.20;99.90
35563;DHT22;21665;40.108;18.302;2022-08-03T06:43:21;34.00;99.90
35563;DHT22;21665;40.108;18.302;2022-08-03T06:45:48;34.00;99.90
35563;DHT22;21665;40.108;18.302;2022-08-03T06:48:15;34.30;99.90
35563;DHT22;21665;40.108;18.302;2022-08-03T06:50:41;34.40;99.90
35563;DHT22;21665;40.108;18.302;2022-08-03T06:53:09;34.50;99.90
35563;DHT22;21665;40.108;18.302;2022-08-03T06:55:36;34.70;99.90
35563;DHT22;21665;40.108;18.302;2022-08-03T06:58:02;34.20;99.90
35563;DHT22;21665;40.108;18.302;2022-08-03T07:00:30;34.60;99.90
35563;DHT22;21665;40.108;18.302;2022-08-03T07:02:56;34.70;99.90
35563;DHT22;21665;40.108;18.302;2022-08-03T07:05:23;35.00;99.90
35563;DHT22;21665;40.108;18.302;2022-08-03T07:07:54;35.40;99.90
35563;DHT22;21665;40.108;18.302;2022-08-03T07:10:22;35.70;99.90
35563;DHT22;21665;40.108;18.302;2022-08-03T07:12:49;35.30;99.90
35563;DHT22;21665;40.108;18.302;2022-08-03T07:15:15;35.10;99.90
35563;DHT22;21665;40.108;18.302;2022-08-03T07:17:43;35.40;99.90
35563;DHT22;21665;40.108;18.302;2022-08-03T07:20:10;35.50;99.90
35563;DHT22;21665;40.108;18.302;2022-08-03T07:22:54;35.80;99.90
35563;DHT22;21665;40.108;18.302;2022-08-03T07:25:23;36.30;99.90
35563;DHT22;21665;40.108;18.302;2022-08-03T07:27:50;36.60;99.90
35563;DHT22;21665;40.108;18.302;2022-08-03T07:30:16;36.20;99.90
35563;DHT22;21665;40.108;18.302;2022-08-03T07:32:43;36.00;99.90
35563;DHT22;21665;40.108;18.302;2022-08-03T07:35:10;36.00;99.90
35563;DHT22;21665;40.108;18.302;2022-08-03T07:37:37;34.80;99.90
35563;DHT22;21665;40.108;18.302;2022-08-03T07:40:04;35.00;99.90
35563;DHT22;21665;40.108;18.302;2022-08-03T07:42:34;35.10;99.90
35563;DHT22;21665;40.108;18.302;2022-08-03T07:45:01;34.90;99.90
35563;DHT22;21665;40.108;18.302;2022-08-03T07:47:29;34.90;99.90
35563;DHT22;21665;40.108;18.302;2022-08-03T07:49:57;34.40;99.90
35563;DHT22;21665;40.108;18.302;2022-08-03T07:52:23;34.30;99.90
35563;DHT22;21665;40.108;18.302;2022-08-03T07:55:09;34.60;99.90
35563;DHT22;21665;40.108;18.302;2022-08-03T07:57:37;34.20;99.90
35563;DHT22;21665;40.108;18.302;2022-08-03T08:00:06;34.30;99.90
35563;DHT22;21665;40.108;18.302;2022-08-03T08:02:43;34.60;99.90
35563;DHT22;21665;40.108;18.302;2022-08-03T08:05:10;34.80;99.90
35563;DHT22;21665;40.108;18.302;2022-08-03T08:07:38;35.00;99.90
35563;DHT22;21665;40.108;18.302;2022-08-03T08:10:08;35.60;99.90
35563;DHT22;21665;40.108;18.302;2022-08-03T08:12:36;36.00;99.90
35563;DHT22;21665;40.108;18.302;2022-08-03T08:15:03;36.20;99.90
35563;DHT22;21665;40.108;18.302;2022-08-03T08:17:30;35.40;99.90
35563;DHT22;21665;40.108;18.302;2022-08-03T08:19:56;35.60;99.90
35563;DHT22;21665;40.108;18.302;2022-08-03T08:22:22;35.10;99.90
35563;DHT22;21665;40.108;18.302;2022-08-03T08:24:49;34.60;99.90
35563;DHT22;21665;40.108;18.302;2022-08-03T08:27:15;34.50;99.90
35563;DHT22;21665;40.108;18.302;2022-08-03T08:29:42;34.20;99.90
35563;DHT22;21665;40.108;18.302;2022-08-03T08:32:08;34.60;99.90
35563;DHT22;21665;40.108;18.302;2022-08-03T08:34:36;34.50;99.90
35563;DHT22;21665;40.108;18.302;2022-08-03T08:37:03;34.70;99.90
35563;DHT22;21665;40.108;18.302;2022-08-03T08:39:29;35.20;99.90
35563;DHT22;21665;40.108;18.302;2022-08-03T08:41:56;35.30;99.90
35563;DHT22;21665;40.108;18.302;2022-08-03T08:44:22;35.00;99.90
35563;DHT22;21665;40.108;18.302;2022-08-03T08:46:49;35.10;99.90
35563;DHT22;21665;40.108;18.302;2022-08-03T08:49:20;35.10;99.90
35563;DHT22;21665;40.108;18.302;2022-08-03T08:51:50;35.20;99.90
35563;DHT22;21665;40.108;18.302;2022-08-03T08:54:20;34.90;99.90
35563;DHT22;21665;40.108;18.302;2022-08-03T08:56:51;35.30;99.90
35563;DHT22;21665;40.108;18.302;2022-08-03T08:59:19;34.90;99.90
35563;DHT22;21665;40.108;18.302;2022-08-03T09:01:45;34.40;99.90
35563;DHT22;21665;40.108;18.302;2022-08-03T09:04:12;34.30;99.90
35563;DHT22;21665;40.108;18.302;2022-08-03T09:06:38;34.70;99.90
35563;DHT22;21665;40.108;18.302;2022-08-03T09:09:05;34.80;99.90
35563;DHT22;21665;40.108;18.302;2022-08-03T09:11:33;34.70;99.90
35563;DHT22;21665;40.108;18.302;2022-08-03T09:14:01;35.40;99.90
35563;DHT22;21665;40.108;18.302;2022-08-03T09:16:27;35.20;99.90
35563;DHT22;21665;40.108;18.302;2022-08-03T09:18:53;34.70;99.90
35563;DHT22;21665;40.108;18.302;2022-08-03T09:21:25;34.60;99.90
35563;DHT22;21665;40.108;18.302;2022-08-03T09:23:54;34.50;99.90
35563;DHT22;21665;40.108;18.302;2022-08-03T09:26:26;34.50;99.90
35563;DHT22;21665;40.108;18.302;2022-08-03T09:34:03;34.60;99.90
35563;DHT22;21665;40.108;18.302;2022-08-03T09:36:34;34.60;99.90
35563;DHT22;21665;40.108;18.302;2022-08-03T09:39:12;34.60;99.90
35563;DHT22;21665;40.108;18.302;2022-08-03T09:41:41;34.80;99.90
35563;DHT22;21665;40.108;18.302;2022-08-03T09:44:08;35.10;99.90
35563;DHT22;21665;40.108;18.302;2022-08-03T09:46:54;34.60;99.90
35563;DHT22;21665;40.108;18.302;2022-08-03T09:49:22;34.40;99.90
35563;DHT22;21665;40.108;18.302;2022-08-03T09:51:49;34.30;99.90
35563;DHT22;21665;40.108;18.302;2022-08-03T09:54:27;34.30;99.90
35563;DHT22;21665;40.108;18.302;2022-08-03T09:56:54;34.30;99.90
35563;DHT22;21665;40.108;18.302;2022-08-03T09:59:26;34.20;99.90
35563;DHT22;21665;40.108;18.302;2022-08-03T10:01:54;33.90;99.90
35563;DHT22;21665;40.108;18.302;2022-08-03T10:04:23;34.00;99.90
35563;DHT22;21665;40.108;18.302;2022-08-03T10:07:08;34.10;99.90
35563;DHT22;21665;40.108;18.302;2022-08-03T10:09:36;34.20;99.90
35563;DHT22;21665;40.108;18.302;2022-08-03T10:12:08;34.40;99.90
35563;DHT22;21665;40.108;18.302;2022-08-03T10:14:36;34.40;99.90
35563;DHT22;21665;40.108;18.302;2022-08-03T10:17:04;34.40;99.90
35563;DHT22;21665;40.108;18.302;2022-08-03T10:19:30;34.70;99.90
35563;DHT22;21665;40.108;18.302;2022-08-03T10:22:06;34.70;99.90
35563;DHT22;21665;40.108;18.302;2022-08-03T10:24:34;34.70;99.90
35563;DHT22;21665;40.108;18.302;2022-08-03T10:27:03;34.80;99.90
35563;DHT22;21665;40.108;18.302;2022-08-03T10:29:37;34.50;99.90
35563;DHT22;21665;40.108;18.302;2022-08-03T10:32:12;34.30;99.90
35563;DHT22;21665;40.108;18.302;2022-08-03T10:34:41;34.40;99.90
35563;DHT22;21665;40.108;18.302;2022-08-03T10:37:10;34.60;99.90
35563;DHT22;21665;40.108;18.302;2022-08-03T10:39:39;34.20;99.90
35563;DHT22;21665;40.108;18.302;2022-08-03T10:42:23;34.30;99.90
35563;DHT22;21665;40.108;18.302;2022-08-03T10:44:59;34.60;99.90
35563;DHT22;21665;40.108;18.302;2022-08-03T10:47:28;34.20;99.90
35563;DHT22;21665;40.108;18.302;2022-08-03T10:49:56;34.50;99.90
35563;DHT22;21665;40.108;18.302;2022-08-03T10:52:23;34.40;99.80
35563;DHT22;21665;40.108;18.302;2022-08-03T10:54:49;34.30;99.80
35563;DHT22;21665;40.108;18.302;2022-08-03T10:57:52;34.20;99.90
35563;DHT22;21665;40.108;18.302;2022-08-03T11:03:05;34.30;99.90
35563;DHT22;21665;40.108;18.302;2022-08-03T11:05:34;34.50;99.80
35563;DHT22;21665;40.108;18.302;2022-08-03T11:10:49;34.50;99.20
35563;DHT22;21665;40.108;18.302;2022-08-03T11:13:19;34.20;99.00
35563;DHT22;21665;40.108;18.302;2022-08-03T11:15:48;34.10;99.00
35563;DHT22;21665;40.108;18.302;2022-08-03T11:18:16;34.10;99.40
35563;DHT22;21665;40.108;18.302;2022-08-03T11:20:49;34.30;99.50
35563;DHT22;21665;40.108;18.302;2022-08-03T11:26:09;34.00;98.90
35563;DHT22;21665;40.108;18.302;2022-08-03T11:28:37;34.20;99.10
35563;DHT22;21665;40.108;18.302;2022-08-03T11:34:09;34.30;98.40
35563;DHT22;21665;40.108;18.302;2022-08-03T11:39:44;34.40;98.30
35563;DHT22;21665;40.108;18.302;2022-08-03T11:44:53;34.30;98.50
35563;DHT22;21665;40.108;18.302;2022-08-03T11:47:20;34.10;99.30
35563;DHT22;21665;40.108;18.302;2022-08-03T11:49:48;34.10;99.10
35563;DHT22;21665;40.108;18.302;2022-08-03T11:52:16;34.10;99.10
35563;DHT22;21665;40.108;18.302;2022-08-03T11:54:43;34.20;98.70
35563;DHT22;21665;40.108;18.302;2022-08-03T11:57:10;34.40;98.30
35563;DHT22;21665;40.108;18.302;2022-08-03T11:59:37;34.30;98.20
35563;DHT22;21665;40.108;18.302;2022-08-03T12:02:11;34.30;98.20
35563;DHT22;21665;40.108;18.302;2022-08-03T12:04:51;34.10;99.10
35563;DHT22;21665;40.108;18.302;2022-08-03T12:07:19;34.10;98.90
35563;DHT22;21665;40.108;18.302;2022-08-03T12:10:08;34.00;99.10
35563;DHT22;21665;40.108;18.302;2022-08-03T12:12:39;34.10;98.80
35563;DHT22;21665;40.108;18.302;2022-08-03T12:15:08;34.50;97.20
35563;DHT22;21665;40.108;18.302;2022-08-03T12:17:39;34.20;97.50
35563;DHT22;21665;40.108;18.302;2022-08-03T12:20:08;34.20;97.40
35563;DHT22;21665;40.108;18.302;2022-08-03T12:22:37;34.00;96.70
35563;DHT22;21665;40.108;18.302;2022-08-03T12:25:06;33.90;96.40
35563;DHT22;21665;40.108;18.302;2022-08-03T12:27:34;34.10;96.40
35563;DHT22;21665;40.108;18.302;2022-08-03T12:30:02;33.90;95.80
35563;DHT22;21665;40.108;18.302;2022-08-03T12:32:30;33.90;96.40
35563;DHT22;21665;40.108;18.302;2022-08-03T12:35:20;34.30;96.60
35563;DHT22;21665;40.108;18.302;2022-08-03T12:41:40;34.30;97.20
35563;DHT22;21665;40.108;18.302;2022-08-03T12:49:09;33.80;98.10
35563;DHT22;21665;40.108;18.302;2022-08-03T12:55:08;34.50;96.70
35563;DHT22;21665;40.108;18.302;2022-08-03T13:02:03;34.30;96.90
35563;DHT22;21665;40.108;18.302;2022-08-03T13:04:35;34.50;96.80
35563;DHT22;21665;40.108;18.302;2022-08-03T13:07:08;34.40;95.90
35563;DHT22;21665;40.108;18.302;2022-08-03T13:09:51;34.50;96.20
35563;DHT22;21665;40.108;18.302;2022-08-03T13:12:20;34.60;95.40
35563;DHT22;21665;40.108;18.302;2022-08-03T13:14:52;34.40;94.40
35563;DHT22;21665;40.108;18.302;2022-08-03T13:17:19;33.90;93.80
35563;DHT22;21665;40.108;18.302;2022-08-03T13:19:46;33.60;94.30
35563;DHT22;21665;40.108;18.302;2022-08-03T13:22:17;33.50;94.80
35563;DHT22;21665;40.108;18.302;2022-08-03T13:24:50;33.40;95.20
35563;DHT22;21665;40.108;18.302;2022-08-03T13:27:18;33.60;95.60
35563;DHT22;21665;40.108;18.302;2022-08-03T13:29:45;33.80;94.90
35563;DHT22;21665;40.108;18.302;2022-08-03T13:32:13;33.60;95.90
35563;DHT22;21665;40.108;18.302;2022-08-03T13:34:41;33.60;95.90
35563;DHT22;21665;40.108;18.302;2022-08-03T13:37:08;33.70;95.40
35563;DHT22;21665;40.108;18.302;2022-08-03T13:42:02;33.40;96.60
35563;DHT22;21665;40.108;18.302;2022-08-03T13:44:31;33.40;96.90
35563;DHT22;21665;40.108;18.302;2022-08-03T13:46:58;33.40;97.60
35563;DHT22;21665;40.108;18.302;2022-08-03T13:49:38;33.60;97.20
35563;DHT22;21665;40.108;18.302;2022-08-03T13:52:05;33.30;97.40
35563;DHT22;21665;40.108;18.302;2022-08-03T13:54:32;33.20;97.90
35563;DHT22;21665;40.108;18.302;2022-08-03T13:56:59;33.30;97.10
35563;DHT22;21665;40.108;18.302;2022-08-03T13:59:31;33.30;97.10
35563;DHT22;21665;40.108;18.302;2022-08-03T14:02:02;33.40;97.50
35563;DHT22;21665;40.108;18.302;2022-08-03T14:04:29;33.30;97.00
35563;DHT22;21665;40.108;18.302;2022-08-03T14:06:56;33.10;97.10
35563;DHT22;21665;40.108;18.302;2022-08-03T14:09:26;32.90;97.50
35563;DHT22;21665;40.108;18.302;2022-08-03T14:18:24;32.70;98.10
35563;DHT22;21665;40.108;18.302;2022-08-03T14:20:51;32.60;98.40
35563;DHT22;21665;40.108;18.302;2022-08-03T14:23:24;32.90;98.10
35563;DHT22;21665;40.108;18.302;2022-08-03T14:25:51;33.00;97.50
35563;DHT22;21665;40.108;18.302;2022-08-03T14:28:19;32.80;97.70
35563;DHT22;21665;40.108;18.302;2022-08-03T14:30:46;32.70;98.30
35563;DHT22;21665;40.108;18.302;2022-08-03T14:33:14;32.90;98.80
35563;DHT22;21665;40.108;18.302;2022-08-03T14:35:40;32.90;98.10
35563;DHT22;21665;40.108;18.302;2022-08-03T14:38:07;33.00;98.30
35563;DHT22;21665;40.108;18.302;2022-08-03T14:40:34;32.90;98.60
35563;DHT22;21665;40.108;18.302;2022-08-03T14:43:00;32.90;98.40
35563;DHT22;21665;40.108;18.302;2022-08-03T14:45:27;32.90;98.20
35563;DHT22;21665;40.108;18.302;2022-08-03T14:47:54;32.90;98.40
35563;DHT22;21665;40.108;18.302;2022-08-03T14:50:22;33.00;98.30
35563;DHT22;21665;40.108;18.302;2022-08-03T14:52:48;33.00;98.00
35563;DHT22;21665;40.108;18.302;2022-08-03T14:55:18;32.90;99.20
35563;DHT22;21665;40.108;18.302;2022-08-03T14:57:46;32.90;99.70
35563;DHT22;21665;40.108;18.302;2022-08-03T15:00:12;32.90;99.00
35563;DHT22;21665;40.108;18.302;2022-08-03T15:02:40;32.60;99.50
35563;DHT22;21665;40.108;18.302;2022-08-03T15:05:07;32.60;99.60
35563;DHT22;21665;40.108;18.302;2022-08-03T15:07:38;32.50;99.00
35563;DHT22;21665;40.108;18.302;2022-08-03T15:10:05;32.60;98.90
35563;DHT22;21665;40.108;18.302;2022-08-03T15:12:31;32.50;99.90
35563;DHT22;21665;40.108;18.302;2022-08-03T15:14:58;32.30;99.60
35563;DHT22;21665;40.108;18.302;2022-08-03T15:17:24;32.10;99.90
35563;DHT22;21665;40.108;18.302;2022-08-03T15:19:54;32.10;99.90
35563;DHT22;21665;40.108;18.302;2022-08-03T15:22:21;32.20;99.90
35563;DHT22;21665;40.108;18.302;2022-08-03T15:24:48;32.10;99.90
35563;DHT22;21665;40.108;18.302;2022-08-03T15:27:14;32.10;99.90
35563;DHT22;21665;40.108;18.302;2022-08-03T15:29:41;32.20;99.90
35563;DHT22;21665;40.108;18.302;2022-08-03T15:32:07;32.20;99.90
35563;DHT22;21665;40.108;18.302;2022-08-03T15:34:34;31.90;99.90
35563;DHT22;21665;40.108;18.302;2022-08-03T15:37:01;32.00;99.90
35563;DHT22;21665;40.108;18.302;2022-08-03T15:39:34;31.90;99.90
35563;DHT22;21665;40.108;18.302;2022-08-03T15:42:00;31.90;99.90
35563;DHT22;21665;40.108;18.302;2022-08-03T15:44:27;31.90;99.90
35563;DHT22;21665;40.108;18.302;2022-08-03T15:46:54;31.80;99.90
35563;DHT22;21665;40.108;18.302;2022-08-03T15:49:20;31.70;99.90
35563;DHT22;21665;40.108;18.302;2022-08-03T15:51:47;31.70;99.90
35563;DHT22;21665;40.108;18.302;2022-08-03T15:54:13;31.80;99.90
35563;DHT22;21665;40.108;18.302;2022-08-03T15:56:39;31.80;99.90
35563;DHT22;21665;40.108;18.302;2022-08-03T15:59:11;31.60;99.90
35563;DHT22;21665;40.108;18.302;2022-08-03T16:01:40;31.50;99.90
35563;DHT22;21665;40.108;18.302;2022-08-03T16:04:06;31.30;99.90
35563;DHT22;21665;40.108;18.302;2022-08-03T16:06:33;31.10;99.90
35563;DHT22;21665;40.108;18.302;2022-08-03T16:08:59;31.20;99.90
35563;DHT22;21665;40.108;18.302;2022-08-03T16:11:25;31.30;99.90
35563;DHT22;21665;40.108;18.302;2022-08-03T16:13:51;31.10;99.90
35563;DHT22;21665;40.108;18.302;2022-08-03T16:16:17;31.10;99.90
35563;DHT22;21665;40.108;18.302;2022-08-03T16:18:44;31.00;99.90
35563;DHT22;21665;40.108;18.302;2022-08-03T16:21:10;31.10;99.90
35563;DHT22;21665;40.108;18.302;2022-08-03T16:23:40;31.10;99.90
35563;DHT22;21665;40.108;18.302;2022-08-03T16:26:06;31.00;99.90
35563;DHT22;21665;40.108;18.302;2022-08-03T16:28:33;30.80;99.90
35563;DHT22;21665;40.108;18.302;2022-08-03T16:31:03;30.90;99.90
35563;DHT22;21665;40.108;18.302;2022-08-03T16:33:30;30.80;99.90
35563;DHT22;21665;40.108;18.302;2022-08-03T16:35:56;30.80;99.90
35563;DHT22;21665;40.108;18.302;2022-08-03T16:38:23;30.80;99.90
35563;DHT22;21665;40.108;18.302;2022-08-03T16:40:49;30.60;99.90
35563;DHT22;21665;40.108;18.302;2022-08-03T16:43:21;30.40;99.90
35563;DHT22;21665;40.108;18.302;2022-08-03T16:45:50;30.30;99.90
35563;DHT22;21665;40.108;18.302;2022-08-03T16:48:17;30.30;99.90
35563;DHT22;21665;40.108;18.302;2022-08-03T16:50:44;30.30;99.90
35563;DHT22;21665;40.108;18.302;2022-08-03T16:53:12;30.30;99.90
35563;DHT22;21665;40.108;18.302;2022-08-03T16:55:39;30.20;99.90
35563;DHT22;21665;40.108;18.302;2022-08-03T16:58:05;30.20;99.90
35563;DHT22;21665;40.108;18.302;2022-08-03T17:00:33;30.20;99.90
35563;DHT22;21665;40.108;18.302;2022-08-03T17:03:03;30.10;99.90
35563;DHT22;21665;40.108;18.302;2022-08-03T17:05:30;30.10;99.90
35563;DHT22;21665;40.108;18.302;2022-08-03T17:20:47;29.70;99.90
35563;DHT22;21665;40.108;18.302;2022-08-03T17:25:53;29.60;99.90
35563;DHT22;21665;40.108;18.302;2022-08-03T17:28:23;29.60;99.90
35563;DHT22;21665;40.108;18.302;2022-08-03T17:31:08;29.50;99.90
35563;DHT22;21665;40.108;18.302;2022-08-03T17:34:13;29.40;99.90
35563;DHT22;21665;40.108;18.302;2022-08-03T17:36:39;29.30;99.90
35563;DHT22;21665;40.108;18.302;2022-08-03T17:39:14;29.30;99.90
35563;DHT22;21665;40.108;18.302;2022-08-03T17:41:55;29.30;99.90
35563;DHT22;21665;40.108;18.302;2022-08-03T17:44:34;29.20;99.90
35563;DHT22;21665;40.108;18.302;2022-08-03T17:53:11;29.00;99.90
35563;DHT22;21665;40.108;18.302;2022-08-03T18:29:18;28.20;99.90
35563;DHT22;21665;40.108;18.302;2022-08-03T18:34:59;28.10;99.90
35563;DHT22;21665;40.108;18.302;2022-08-03T18:37:38;28.00;99.90
35563;DHT22;21665;40.108;18.302;2022-08-03T18:40:08;28.00;99.90
